createdAt,value
2023-02-20T00:00:26.292Z,96.30
2023-02-20T00:01:29.835Z,96.30
2023-02-20T00:02:36.136Z,96.30
2023-02-20T00:03:38.748Z,96.30
2023-02-20T00:04:42.740Z,96.30
2023-02-20T00:05:50.388Z,96.30
2023-02-20T00:06:54.314Z,96.30
2023-02-20T00:08:00.202Z,96.30
2023-02-20T00:09:03.990Z,96.30
2023-02-20T00:10:08.389Z,96.30
2023-02-20T00:11:11.992Z,96.30
2023-02-20T00:12:14.488Z,96.30
2023-02-20T00:13:18.439Z,96.30
2023-02-20T00:14:21.124Z,96.30
2023-02-20T00:15:24.802Z,96.30
2023-02-20T00:16:27.285Z,96.30
2023-02-20T00:17:30.741Z,96.30
2023-02-20T00:18:33.218Z,96.30
2023-02-20T00:19:36.675Z,96.30
2023-02-20T00:20:39.146Z,96.30
2023-02-20T00:21:48.525Z,96.30
2023-02-20T00:22:52.415Z,96.30
2023-02-20T00:23:56.071Z,96.30
2023-02-20T00:24:58.508Z,96.30
2023-02-20T00:26:02.224Z,96.30
2023-02-20T00:27:05.308Z,96.30
2023-02-20T00:28:09.089Z,96.30
2023-02-20T00:29:11.654Z,96.30
2023-02-20T00:30:19.108Z,96.30
2023-02-20T00:31:21.756Z,96.30
2023-02-20T00:32:25.338Z,96.30
2023-02-20T00:33:28.627Z,96.30
2023-02-20T00:34:32.075Z,96.30
2023-02-20T00:35:34.597Z,96.30
2023-02-20T00:36:38.023Z,96.30
2023-02-20T00:37:43.926Z,96.30
2023-02-20T00:38:48.639Z,96.30
2023-02-20T00:39:51.197Z,96.30
2023-02-20T00:40:54.644Z,96.30
2023-02-20T00:41:57.924Z,96.30
2023-02-20T00:43:01.491Z,96.30
2023-02-20T00:44:04.703Z,96.30
2023-02-20T00:45:09.409Z,96.30
2023-02-20T00:46:13.653Z,96.30
2023-02-20T00:47:18.733Z,96.30
2023-02-20T00:48:21.296Z,96.30
2023-02-20T00:49:24.820Z,96.30
2023-02-20T00:50:27.930Z,96.30
2023-02-20T00:51:33.529Z,96.30
2023-02-20T00:52:36.317Z,96.30
2023-02-20T00:53:41.157Z,96.30
2023-02-20T00:54:43.740Z,96.30
2023-02-20T00:55:48.754Z,96.30
2023-02-20T00:56:51.190Z,96.30
2023-02-20T00:57:55.363Z,96.30
2023-02-20T00:58:58.680Z,96.30
2023-02-20T01:00:02.759Z,96.30
2023-02-20T01:01:05.785Z,96.30
2023-02-20T01:02:09.358Z,96.30
2023-02-20T01:03:13.193Z,96.30
2023-02-20T01:04:16.663Z,96.30
2023-02-20T01:05:19.809Z,96.30
2023-02-20T01:06:23.413Z,96.30
2023-02-20T01:07:26.197Z,96.30
2023-02-20T01:08:29.678Z,96.30
2023-02-20T01:09:33.601Z,96.30
2023-02-20T01:10:37.096Z,96.30
2023-02-20T01:11:41.296Z,96.30
2023-02-20T01:12:44.818Z,96.30
2023-02-20T01:13:49.456Z,96.30
2023-02-20T01:14:52.890Z,96.30
2023-02-20T01:15:55.470Z,96.30
2023-02-20T01:17:00.340Z,96.30
2023-02-20T01:18:05.870Z,96.30
2023-02-20T01:19:10.064Z,96.30
2023-02-20T01:20:13.053Z,96.30
2023-02-20T01:21:16.695Z,96.30
2023-02-20T01:22:19.164Z,96.30
2023-02-20T01:23:23.003Z,96.30
2023-02-20T01:24:25.521Z,96.30
2023-02-20T01:25:31.459Z,96.30
2023-02-20T01:26:33.946Z,96.30
2023-02-20T01:27:37.476Z,96.30
2023-02-20T01:28:39.949Z,96.30
2023-02-20T01:29:43.432Z,96.30
2023-02-20T01:30:46.028Z,96.30
2023-02-20T01:31:50.920Z,96.30
2023-02-20T01:32:53.620Z,96.30
2023-02-20T01:33:57.206Z,96.30
2023-02-20T01:34:59.795Z,96.30
2023-02-20T01:36:03.286Z,96.30
2023-02-20T01:37:05.823Z,96.30
2023-02-20T01:38:09.374Z,96.30
2023-02-20T01:39:11.816Z,96.30
2023-02-20T01:40:19.597Z,96.30
2023-02-20T01:41:24.916Z,96.30
2023-02-20T01:42:33.135Z,96.30
2023-02-20T01:43:35.899Z,96.30
2023-02-20T01:44:40.473Z,96.30
2023-02-20T01:45:43.505Z,96.30
2023-02-20T01:46:52.202Z,96.30
2023-02-20T01:47:58.224Z,96.30
2023-02-20T01:49:06.443Z,96.30
2023-02-20T01:50:09.950Z,96.30
2023-02-20T01:51:14.681Z,96.30
2023-02-20T01:52:21.952Z,96.30
2023-02-20T01:53:30.203Z,96.30
2023-02-20T01:54:33.962Z,96.30
2023-02-20T01:55:45.504Z,96.30
2023-02-20T01:56:51.269Z,96.30
2023-02-20T01:58:00.633Z,96.30
2023-02-20T01:59:04.911Z,96.30
2023-02-20T02:00:13.304Z,96.30
2023-02-20T02:01:18.988Z,96.30
2023-02-20T02:02:25.060Z,96.30
2023-02-20T02:03:31.074Z,96.30
2023-02-20T02:04:36.968Z,96.30
2023-02-20T02:05:45.213Z,96.30
2023-02-20T02:06:53.328Z,96.30
2023-02-20T02:07:56.817Z,96.30
2023-02-20T02:09:07.218Z,96.30
2023-02-20T02:10:14.475Z,96.30
2023-02-20T02:11:21.604Z,96.30
2023-02-20T02:12:25.915Z,96.30
2023-02-20T02:13:30.088Z,96.30
2023-02-20T02:14:32.648Z,96.30
2023-02-20T02:15:36.291Z,96.30
2023-02-20T02:16:52.550Z,96.30
2023-02-20T02:18:18.320Z,96.30
2023-02-20T02:20:03.658Z,96.30
2023-02-20T02:22:04.856Z,96.30
2023-02-20T02:23:53.250Z,96.30
2023-02-20T02:25:26.196Z,96.30
2023-02-20T02:27:30.356Z,96.30
2023-02-20T02:29:33.338Z,96.30
2023-02-20T02:31:04.290Z,96.30
2023-02-20T02:32:46.144Z,96.30
2023-02-20T02:34:40.616Z,96.30
2023-02-20T02:36:30.881Z,96.30
2023-02-20T02:37:38.294Z,96.30
2023-02-20T02:38:51.392Z,96.30
2023-02-20T02:40:03.002Z,96.30
2023-02-20T02:41:14.797Z,96.30
2023-02-20T02:42:29.418Z,96.30
2023-02-20T02:43:49.274Z,96.30
2023-02-20T02:44:58.329Z,96.30
2023-02-20T02:46:11.360Z,96.30
2023-02-20T02:47:21.287Z,96.30
2023-02-20T02:48:32.379Z,96.30
2023-02-20T02:49:40.229Z,96.30
2023-02-20T02:50:47.581Z,96.30
2023-02-20T02:51:52.930Z,96.30
2023-02-20T02:52:58.400Z,96.30
2023-02-20T02:54:10.557Z,96.30
2023-02-20T02:55:15.593Z,96.30
2023-02-20T02:56:23.774Z,96.30
2023-02-20T02:57:29.687Z,96.30
2023-02-20T02:58:32.389Z,96.30
2023-02-20T02:59:38.414Z,96.30
2023-02-20T03:00:47.465Z,96.30
2023-02-20T03:01:56.025Z,96.30
2023-02-20T03:03:07.003Z,96.30
2023-02-20T03:04:13.603Z,96.30
2023-02-20T03:05:23.346Z,96.30
2023-02-20T03:06:35.526Z,96.30
2023-02-20T03:07:42.916Z,96.30
2023-02-20T03:08:57.586Z,96.30
2023-02-20T03:10:06.882Z,96.30
2023-02-20T03:11:17.298Z,96.30
2023-02-20T03:12:24.605Z,96.30
2023-02-20T03:13:49.946Z,96.30
2023-02-20T03:15:18.537Z,96.30
2023-02-20T03:16:29.775Z,96.30
2023-02-20T03:17:37.008Z,96.30
2023-02-20T03:18:42.530Z,96.30
2023-02-20T03:19:48.914Z,96.30
2023-02-20T03:21:00.101Z,96.30
2023-02-20T03:22:05.837Z,96.30
2023-02-20T03:23:12.908Z,96.30
2023-02-20T03:24:20.600Z,96.30
2023-02-20T03:25:29.928Z,96.30
2023-02-20T03:26:35.908Z,96.30
2023-02-20T03:27:46.176Z,96.30
2023-02-20T03:28:56.350Z,96.30
2023-02-20T03:30:01.900Z,96.30
2023-02-20T03:31:09.068Z,96.30
2023-02-20T03:32:32.499Z,96.30
2023-02-20T03:33:59.126Z,96.30
2023-02-20T03:35:23.131Z,96.30
2023-02-20T03:36:51.005Z,96.30
2023-02-20T03:38:14.290Z,96.30
2023-02-20T03:39:40.283Z,96.30
2023-02-20T03:41:01.635Z,96.30
2023-02-20T03:42:26.649Z,96.30
2023-02-20T03:43:40.093Z,96.30
2023-02-20T03:44:43.839Z,96.30
2023-02-20T03:45:50.034Z,96.30
2023-02-20T03:46:57.658Z,96.30
2023-02-20T03:48:09.106Z,96.30
2023-02-20T03:49:17.172Z,96.30
2023-02-20T03:50:23.464Z,96.30
2023-02-20T03:51:45.760Z,96.30
2023-02-20T03:52:59.814Z,96.30
2023-02-20T03:54:02.870Z,96.30
2023-02-20T03:55:09.447Z,96.30
2023-02-20T03:56:17.053Z,96.30
2023-02-20T03:57:25.904Z,96.30
2023-02-20T03:58:35.446Z,96.30
2023-02-20T03:59:46.710Z,96.30
2023-02-20T04:00:51.365Z,96.30
2023-02-20T04:02:01.265Z,96.30
2023-02-20T04:03:13.191Z,96.30
2023-02-20T04:04:26.246Z,96.30
2023-02-20T04:05:35.553Z,96.30
2023-02-20T04:06:41.437Z,96.30
2023-02-20T04:07:51.764Z,96.30
2023-02-20T04:09:03.243Z,96.30
2023-02-20T04:10:12.999Z,96.30
2023-02-20T04:11:21.456Z,96.30
2023-02-20T04:12:29.266Z,96.30
2023-02-20T04:13:34.141Z,96.30
2023-02-20T04:14:38.638Z,96.30
2023-02-20T04:15:43.130Z,96.30
2023-02-20T04:16:55.402Z,96.30
2023-02-20T04:18:04.635Z,96.30
2023-02-20T04:19:07.476Z,96.30
2023-02-20T04:20:12.621Z,96.30
2023-02-20T04:21:28.412Z,96.30
2023-02-20T04:22:37.054Z,96.30
2023-02-20T04:23:46.837Z,96.30
2023-02-20T04:24:56.238Z,96.30
2023-02-20T04:26:05.866Z,96.30
2023-02-20T04:27:13.423Z,96.30
2023-02-20T04:28:23.524Z,96.30
2023-02-20T04:29:34.488Z,96.30
2023-02-20T04:30:38.079Z,96.30
2023-02-20T04:31:42.319Z,96.30
2023-02-20T04:32:45.157Z,96.30
2023-02-20T04:33:49.193Z,96.30
2023-02-20T04:34:55.818Z,96.30
2023-02-20T04:35:59.503Z,96.30
2023-02-20T04:37:10.902Z,96.30
2023-02-20T04:38:13.702Z,96.30
2023-02-20T04:39:18.151Z,96.30
2023-02-20T04:40:23.671Z,96.30
2023-02-20T04:41:28.980Z,96.30
2023-02-20T04:42:31.598Z,96.30
2023-02-20T04:43:35.532Z,96.30
2023-02-20T04:44:39.938Z,96.30
2023-02-20T04:45:45.166Z,96.30
2023-02-20T04:46:48.286Z,96.30
2023-02-20T04:47:52.540Z,96.30
2023-02-20T04:48:55.113Z,96.30
2023-02-20T04:49:58.547Z,96.30
2023-02-20T04:51:02.985Z,96.30
2023-02-20T04:52:08.694Z,96.30
2023-02-20T04:53:11.625Z,96.30
2023-02-20T04:54:15.517Z,96.30
2023-02-20T04:55:18.304Z,96.30
2023-02-20T04:56:21.818Z,96.30
2023-02-20T04:57:25.804Z,96.30
2023-02-20T04:58:29.683Z,96.30
2023-02-20T04:59:41.631Z,96.30
2023-02-20T05:00:46.907Z,96.30
2023-02-20T05:01:51.959Z,96.30
2023-02-20T05:02:55.924Z,96.30
2023-02-20T05:03:58.768Z,96.30
2023-02-20T05:05:02.515Z,96.30
2023-02-20T05:06:05.416Z,96.30
2023-02-20T05:07:09.063Z,96.30
2023-02-20T05:08:11.585Z,96.30
2023-02-20T05:09:15.197Z,96.30
2023-02-20T05:10:20.183Z,96.30
2023-02-20T05:11:23.853Z,96.30
2023-02-20T05:12:27.674Z,96.30
2023-02-20T05:13:31.594Z,96.30
2023-02-20T05:14:34.088Z,96.30
2023-02-20T05:15:37.654Z,96.30
2023-02-20T05:16:40.976Z,96.30
2023-02-20T05:17:44.482Z,96.30
2023-02-20T05:18:47.015Z,96.30
2023-02-20T05:19:50.667Z,96.30
2023-02-20T05:21:12.148Z,96.30
2023-02-20T05:22:20.451Z,96.30
2023-02-20T05:23:22.944Z,96.30
2023-02-20T05:24:28.343Z,96.30
2023-02-20T05:25:30.762Z,96.30
2023-02-20T05:26:34.402Z,96.30
2023-02-20T05:27:38.398Z,96.30
2023-02-20T05:28:41.987Z,96.30
2023-02-20T05:29:49.821Z,96.30
2023-02-20T05:30:53.356Z,96.30
2023-02-20T05:31:55.998Z,96.30
2023-02-20T05:32:59.659Z,96.30
2023-02-20T05:34:02.160Z,96.30
2023-02-20T05:35:05.911Z,96.30
2023-02-20T05:36:09.433Z,96.30
2023-02-20T05:37:14.202Z,96.30
2023-02-20T05:38:18.478Z,96.30
2023-02-20T05:39:22.221Z,96.30
2023-02-20T05:40:24.664Z,96.30
2023-02-20T05:41:28.334Z,96.30
2023-02-20T05:42:31.731Z,96.30
2023-02-20T05:43:35.680Z,96.30
2023-02-20T05:44:39.641Z,96.30
2023-02-20T05:45:42.037Z,96.30
2023-02-20T05:46:45.654Z,96.30
2023-02-20T05:47:48.102Z,96.30
2023-02-20T05:48:52.042Z,96.30
2023-02-20T05:49:55.440Z,96.30
2023-02-20T05:50:58.026Z,96.30
2023-02-20T05:52:01.868Z,96.30
2023-02-20T05:53:04.706Z,96.30
2023-02-20T05:54:08.206Z,96.30
2023-02-20T05:55:10.708Z,96.30
2023-02-20T05:56:14.313Z,96.30
2023-02-20T05:57:17.918Z,96.30
2023-02-20T05:58:20.469Z,96.30
2023-02-20T05:59:25.631Z,96.30
2023-02-20T06:00:28.191Z,96.30
2023-02-20T06:01:33.044Z,96.30
2023-02-20T06:02:35.632Z,96.30
2023-02-20T06:03:39.060Z,96.30
2023-02-20T06:04:41.588Z,96.30
2023-02-20T06:05:45.519Z,96.30
2023-02-20T06:06:47.936Z,96.30
2023-02-20T06:07:51.389Z,96.30
2023-02-20T06:08:53.918Z,96.30
2023-02-20T06:09:58.365Z,96.30
2023-02-20T06:11:00.879Z,96.30
2023-02-20T06:12:04.620Z,96.30
2023-02-20T06:13:07.038Z,96.30
2023-02-20T06:14:10.465Z,96.30
2023-02-20T06:15:14.306Z,96.30
2023-02-20T06:16:24.906Z,96.30
2023-02-20T06:17:29.738Z,96.30
2023-02-20T06:18:33.466Z,96.30
2023-02-20T06:19:37.763Z,96.30
2023-02-20T06:20:41.785Z,96.30
2023-02-20T06:21:48.309Z,96.30
2023-02-20T06:22:51.644Z,96.30
2023-02-20T06:23:57.190Z,96.30
2023-02-20T06:25:00.919Z,96.30
2023-02-20T06:26:05.602Z,96.30
2023-02-20T06:27:09.467Z,96.30
2023-02-20T06:28:12.601Z,96.30
2023-02-20T06:29:18.841Z,96.30
2023-02-20T06:30:24.468Z,96.30
2023-02-20T06:31:29.041Z,96.30
2023-02-20T06:32:33.743Z,96.30
2023-02-20T06:33:38.012Z,96.30
2023-02-20T06:34:45.614Z,96.30
2023-02-20T06:35:48.391Z,96.30
2023-02-20T06:36:51.980Z,96.30
2023-02-20T06:37:54.352Z,96.30
2023-02-20T06:38:58.331Z,96.30
2023-02-20T06:40:01.218Z,96.30
2023-02-20T06:41:05.044Z,96.30
2023-02-20T06:42:07.617Z,96.30
2023-02-20T06:43:11.202Z,96.30
2023-02-20T06:44:14.859Z,96.30
2023-02-20T06:45:18.554Z,96.30
2023-02-20T06:46:23.207Z,96.30
2023-02-20T06:47:27.017Z,96.30
2023-02-20T06:48:29.534Z,96.30
2023-02-20T06:49:33.054Z,96.30
2023-02-20T06:50:35.682Z,96.30
2023-02-20T06:51:40.324Z,96.30
2023-02-20T06:52:42.981Z,96.30
2023-02-20T06:53:46.821Z,96.30
2023-02-20T06:54:51.520Z,96.30
2023-02-20T06:55:54.016Z,96.30
2023-02-20T06:56:58.710Z,96.30
2023-02-20T06:58:01.304Z,96.30
2023-02-20T06:59:09.159Z,96.30
2023-02-20T07:00:14.808Z,96.30
2023-02-20T07:01:19.151Z,96.30
2023-02-20T07:02:23.925Z,96.30
2023-02-20T07:03:26.438Z,96.30
2023-02-20T07:04:30.989Z,96.30
2023-02-20T07:05:33.483Z,96.30
2023-02-20T07:06:38.107Z,96.30
2023-02-20T07:07:40.793Z,96.30
2023-02-20T07:08:44.371Z,96.30
2023-02-20T07:09:47.030Z,96.30
2023-02-20T07:10:50.533Z,96.30
2023-02-20T07:11:54.690Z,96.30
2023-02-20T07:12:57.668Z,96.30
2023-02-20T07:14:01.324Z,96.30
2023-02-20T07:15:05.250Z,96.30
2023-02-20T07:16:09.659Z,96.30
2023-02-20T07:17:12.377Z,96.30
2023-02-20T07:18:18.144Z,96.30
2023-02-20T07:19:20.777Z,96.30
2023-02-20T07:20:26.114Z,96.30
2023-02-20T07:21:28.863Z,96.30
2023-02-20T07:22:32.486Z,96.30
2023-02-20T07:23:35.040Z,96.30
2023-02-20T07:24:38.637Z,96.30
2023-02-20T07:25:41.224Z,96.30
2023-02-20T07:26:44.788Z,96.30
2023-02-20T07:27:47.311Z,96.30
2023-02-20T07:28:52.861Z,96.30
2023-02-20T07:29:56.800Z,96.30
2023-02-20T07:31:00.369Z,96.30
2023-02-20T07:32:03.348Z,96.30
2023-02-20T07:33:07.260Z,96.30
2023-02-20T07:34:11.688Z,96.30
2023-02-20T07:35:16.042Z,96.30
2023-02-20T07:36:19.677Z,96.30
2023-02-20T07:37:23.341Z,96.30
2023-02-20T07:38:25.960Z,96.30
2023-02-20T07:39:30.507Z,96.30
2023-02-20T07:40:33.441Z,96.30
2023-02-20T07:41:37.005Z,96.30
2023-02-20T07:42:41.082Z,96.30
2023-02-20T07:43:57.496Z,96.30
2023-02-20T07:45:00.141Z,96.30
2023-02-20T07:46:04.033Z,96.30
2023-02-20T07:47:07.888Z,96.30
2023-02-20T07:48:10.644Z,96.30
2023-02-20T07:49:15.649Z,96.30
2023-02-20T07:50:18.757Z,96.30
2023-02-20T07:51:22.428Z,96.30
2023-02-20T07:52:25.024Z,96.30
2023-02-20T07:53:28.640Z,96.30
2023-02-20T07:54:32.345Z,96.30
2023-02-20T07:55:35.955Z,96.30
2023-02-20T07:56:40.460Z,96.30
2023-02-20T07:57:46.872Z,96.30
2023-02-20T07:58:50.606Z,96.30
2023-02-20T07:59:54.441Z,96.30
2023-02-20T08:00:57.197Z,96.30
2023-02-20T08:02:00.905Z,96.30
2023-02-20T08:03:03.866Z,96.30
2023-02-20T08:04:07.454Z,96.30
2023-02-20T08:05:11.806Z,96.30
2023-02-20T08:06:20.089Z,96.30
2023-02-20T08:07:22.735Z,96.30
2023-02-20T08:08:26.390Z,96.30
2023-02-20T08:09:30.026Z,96.30
2023-02-20T08:10:33.952Z,96.30
2023-02-20T08:11:37.530Z,96.30
2023-02-20T08:12:41.471Z,96.30
2023-02-20T08:13:44.700Z,96.30
2023-02-20T08:14:50.966Z,96.30
2023-02-20T08:15:53.904Z,96.30
2023-02-20T08:16:57.649Z,96.30
2023-02-20T08:18:00.281Z,96.30
2023-02-20T08:19:03.991Z,96.30
2023-02-20T08:20:09.133Z,96.30
2023-02-20T08:21:14.509Z,96.30
2023-02-20T08:22:18.199Z,96.30
2023-02-20T08:23:23.663Z,96.30
2023-02-20T08:24:27.187Z,96.30
2023-02-20T08:25:29.787Z,96.30
2023-02-20T08:26:34.772Z,96.30
2023-02-20T08:27:38.571Z,96.30
2023-02-20T08:28:42.268Z,96.30
2023-02-20T08:29:46.800Z,96.30
2023-02-20T08:30:50.294Z,96.30
2023-02-20T08:31:53.264Z,96.30
2023-02-20T08:32:57.437Z,96.30
2023-02-20T08:34:01.490Z,96.30
2023-02-20T08:35:04.381Z,96.30
2023-02-20T08:36:09.158Z,96.30
2023-02-20T08:37:13.528Z,96.30
2023-02-20T08:38:31.199Z,96.30
2023-02-20T08:39:33.875Z,96.30
2023-02-20T08:40:37.452Z,96.30
2023-02-20T08:41:44.621Z,96.30
2023-02-20T08:42:52.060Z,96.30
2023-02-20T08:43:55.760Z,96.30
2023-02-20T08:44:59.295Z,96.30
2023-02-20T08:46:03.131Z,96.30
2023-02-20T08:47:05.682Z,96.30
2023-02-20T08:48:09.637Z,96.30
2023-02-20T08:49:13.208Z,96.30
2023-02-20T08:50:16.121Z,96.30
2023-02-20T08:51:22.925Z,96.30
2023-02-20T08:52:27.665Z,96.30
2023-02-20T08:53:31.358Z,96.30
2023-02-20T08:54:33.965Z,96.30
2023-02-20T08:55:37.617Z,96.30
2023-02-20T08:56:42.011Z,96.30
2023-02-20T08:57:44.711Z,96.30
2023-02-20T08:58:48.417Z,96.30
2023-02-20T08:59:51.121Z,96.30
2023-02-20T09:00:55.836Z,96.30
2023-02-20T09:01:58.449Z,96.30
2023-02-20T09:03:02.218Z,96.30
2023-02-20T09:04:06.424Z,96.30
2023-02-20T09:05:09.936Z,96.30
2023-02-20T09:06:13.777Z,96.30
2023-02-20T09:07:16.715Z,96.30
2023-02-20T09:08:22.029Z,96.30
2023-02-20T09:09:25.037Z,96.30
2023-02-20T09:10:28.992Z,96.30
2023-02-20T09:11:31.617Z,96.30
2023-02-20T09:12:35.301Z,96.30
2023-02-20T09:13:44.811Z,96.30
2023-02-20T09:14:47.563Z,96.30
2023-02-20T09:15:51.324Z,96.30
2023-02-20T09:16:54.199Z,96.30
2023-02-20T09:17:57.819Z,96.30
2023-02-20T09:19:01.128Z,96.30
2023-02-20T09:20:06.036Z,96.30
2023-02-20T09:21:11.162Z,96.30
2023-02-20T09:22:16.499Z,96.30
2023-02-20T09:23:24.414Z,96.30
2023-02-20T09:24:32.143Z,96.30
2023-02-20T09:25:37.171Z,96.30
2023-02-20T09:26:39.732Z,96.30
2023-02-20T09:27:43.450Z,96.30
2023-02-20T09:28:46.264Z,96.30
2023-02-20T09:29:49.875Z,96.30
2023-02-20T09:30:55.786Z,96.30
2023-02-20T09:31:59.564Z,96.30
2023-02-20T09:33:03.201Z,96.30
2023-02-20T09:34:05.836Z,96.30
2023-02-20T09:35:11.362Z,96.30
2023-02-20T09:36:15.527Z,96.30
2023-02-20T09:37:20.701Z,96.30
2023-02-20T09:38:27.848Z,96.30
2023-02-20T09:39:31.089Z,96.30
2023-02-20T09:40:34.810Z,96.30
2023-02-20T09:41:59.485Z,96.30
2023-02-20T09:43:22.205Z,96.30
2023-02-20T09:44:33.701Z,96.30
2023-02-20T09:45:39.389Z,96.30
2023-02-20T09:46:47.115Z,96.30
2023-02-20T09:48:08.987Z,96.30
2023-02-20T09:49:15.746Z,96.30
2023-02-20T09:50:30.536Z,96.30
2023-02-20T09:51:39.299Z,96.30
2023-02-20T09:52:45.062Z,96.30
2023-02-20T09:53:57.389Z,96.30
2023-02-20T09:55:06.131Z,96.30
2023-02-20T09:56:18.382Z,96.30
2023-02-20T09:57:27.716Z,96.30
2023-02-20T09:58:45.471Z,96.30
2023-02-20T09:59:53.857Z,96.30
2023-02-20T10:01:03.703Z,96.30
2023-02-20T10:02:17.590Z,96.30
2023-02-20T10:03:30.756Z,96.30
2023-02-20T10:04:47.105Z,96.30
2023-02-20T10:05:58.198Z,96.30
2023-02-20T10:07:17.756Z,96.30
2023-02-20T10:08:22.147Z,96.30
2023-02-20T10:09:27.163Z,96.30
2023-02-20T10:10:39.603Z,96.30
2023-02-20T10:11:59.255Z,96.30
2023-02-20T10:13:32.016Z,96.30
2023-02-20T10:15:01.616Z,96.30
2023-02-20T10:16:19.819Z,96.30
2023-02-20T10:17:36.940Z,96.30
2023-02-20T10:18:53.210Z,96.30
2023-02-20T10:20:03.473Z,96.30
2023-02-20T10:21:19.257Z,96.30
2023-02-20T10:22:30.882Z,96.30
2023-02-20T10:23:49.354Z,96.30
2023-02-20T10:25:15.670Z,96.30
2023-02-20T10:26:21.041Z,96.30
2023-02-20T10:27:44.132Z,96.30
2023-02-20T10:28:50.648Z,96.30
2023-02-20T10:29:56.844Z,96.30
2023-02-20T10:31:11.471Z,96.30
2023-02-20T10:32:21.945Z,96.30
2023-02-20T10:33:34.121Z,96.30
2023-02-20T10:34:42.073Z,96.30
2023-02-20T10:35:51.476Z,96.30
2023-02-20T10:37:03.254Z,96.30
2023-02-20T10:38:12.449Z,96.30
2023-02-20T10:39:17.294Z,96.30
2023-02-20T10:40:30.585Z,96.30
2023-02-20T10:41:43.116Z,96.30
2023-02-20T10:42:54.450Z,96.30
2023-02-20T10:44:03.641Z,96.30
2023-02-20T10:45:11.259Z,96.30
2023-02-20T10:46:20.969Z,96.30
2023-02-20T10:47:31.116Z,96.30
2023-02-20T10:48:36.768Z,96.30
2023-02-20T10:49:48.175Z,96.30
2023-02-20T10:51:03.633Z,96.30
2023-02-20T10:52:29.683Z,96.30
2023-02-20T10:53:45.662Z,96.30
2023-02-20T10:54:56.817Z,96.30
2023-02-20T10:56:10.554Z,96.30
2023-02-20T10:57:20.348Z,96.30
2023-02-20T10:58:33.764Z,96.30
2023-02-20T10:59:46.572Z,96.30
2023-02-20T11:00:55.913Z,96.30
2023-02-20T11:02:03.737Z,96.30
2023-02-20T11:03:12.686Z,96.30
2023-02-20T11:04:22.604Z,96.30
2023-02-20T11:05:34.212Z,96.30
2023-02-20T11:06:44.548Z,96.30
2023-02-20T11:07:48.661Z,96.30
2023-02-20T11:08:52.331Z,96.30
2023-02-20T11:09:55.043Z,96.30
2023-02-20T11:11:17.254Z,96.30
2023-02-20T11:12:32.280Z,96.30
2023-02-20T11:13:36.126Z,96.30
2023-02-20T11:14:47.140Z,96.30
2023-02-20T11:15:55.585Z,96.30
2023-02-20T11:17:03.027Z,96.30
2023-02-20T11:18:22.211Z,96.30
2023-02-20T11:19:31.824Z,96.30
2023-02-20T11:20:47.024Z,96.30
2023-02-20T11:21:52.948Z,96.30
2023-02-20T11:22:57.157Z,96.30
2023-02-20T11:24:19.322Z,96.30
2023-02-20T11:25:29.022Z,96.30
2023-02-20T11:26:34.901Z,96.30
2023-02-20T11:27:38.841Z,96.30
2023-02-20T11:28:42.071Z,96.30
2023-02-20T11:29:52.540Z,96.30
2023-02-20T11:31:03.566Z,96.30
2023-02-20T11:32:27.044Z,96.30
2023-02-20T11:33:35.877Z,96.30
2023-02-20T11:34:38.613Z,96.30
2023-02-20T11:35:43.252Z,96.30
2023-02-20T11:36:50.691Z,96.30
2023-02-20T11:38:37.230Z,96.30
2023-02-20T11:39:46.230Z,96.30
2023-02-20T11:41:08.745Z,96.30
2023-02-20T11:42:18.778Z,96.30
2023-02-20T11:43:26.757Z,96.30
2023-02-20T11:44:30.436Z,96.30
2023-02-20T11:45:32.977Z,96.30
2023-02-20T11:46:37.107Z,96.30
2023-02-20T11:47:40.810Z,96.30
2023-02-20T11:49:05.366Z,96.30
2023-02-20T11:50:19.831Z,96.30
2023-02-20T11:51:35.570Z,96.30
2023-02-20T11:52:38.227Z,96.30
2023-02-20T11:53:41.836Z,96.30
2023-02-20T11:54:46.003Z,96.30
2023-02-20T11:55:59.657Z,96.30
2023-02-20T11:57:08.054Z,96.30
2023-02-20T11:58:25.121Z,96.30
2023-02-20T11:59:36.948Z,96.30
2023-02-20T12:00:49.119Z,96.30
2023-02-20T12:02:00.970Z,96.30
2023-02-20T12:03:14.128Z,96.30
2023-02-20T12:04:21.570Z,96.30
2023-02-20T12:05:40.709Z,96.30
2023-02-20T12:06:44.230Z,96.30
2023-02-20T12:07:59.666Z,96.30
2023-02-20T12:09:13.084Z,96.30
2023-02-20T12:10:43.419Z,96.30
2023-02-20T12:11:50.526Z,96.30
2023-02-20T12:13:15.287Z,96.30
2023-02-20T12:14:20.583Z,96.30
2023-02-20T12:15:26.009Z,96.30
2023-02-20T12:17:04.097Z,96.30
2023-02-20T12:18:43.526Z,96.30
2023-02-20T12:19:57.037Z,96.30
2023-02-20T12:21:14.429Z,96.30
2023-02-20T12:22:27.006Z,96.30
2023-02-20T12:23:42.795Z,96.30
2023-02-20T12:25:16.662Z,96.30
2023-02-20T12:26:42.662Z,96.30
2023-02-20T12:28:00.770Z,96.30
2023-02-20T12:29:22.893Z,96.30
2023-02-20T12:30:48.181Z,96.30
2023-02-20T12:32:10.558Z,96.30
2023-02-20T12:33:52.543Z,96.30
2023-02-20T12:35:26.500Z,96.30
2023-02-20T12:36:36.565Z,96.30
2023-02-20T12:37:54.865Z,96.30
2023-02-20T12:39:03.787Z,96.30
2023-02-20T12:40:46.663Z,96.30
2023-02-20T12:42:13.191Z,96.30
2023-02-20T12:43:31.954Z,96.30
2023-02-20T12:45:23.066Z,96.30
2023-02-20T12:46:31.628Z,96.30
2023-02-20T12:47:38.659Z,96.30
2023-02-20T12:49:01.521Z,96.30
2023-02-20T12:50:45.622Z,96.30
2023-02-20T12:51:59.209Z,96.30
2023-02-20T12:53:30.676Z,96.30
2023-02-20T12:54:45.099Z,96.30
2023-02-20T12:56:04.598Z,96.30
2023-02-20T12:57:17.240Z,96.30
2023-02-20T12:58:39.432Z,96.30
2023-02-20T12:59:53.461Z,96.30
2023-02-20T13:01:01.295Z,96.30
2023-02-20T13:02:32.537Z,96.30
2023-02-20T13:03:58.446Z,96.30
2023-02-20T13:05:04.415Z,96.30
2023-02-20T13:06:09.628Z,96.30
2023-02-20T13:07:20.892Z,96.30
2023-02-20T13:08:31.101Z,96.30
2023-02-20T13:09:38.574Z,96.30
2023-02-20T13:10:53.618Z,96.30
2023-02-20T13:12:03.550Z,96.30
2023-02-20T13:13:11.792Z,96.20
2023-02-20T13:14:35.385Z,96.30
2023-02-20T13:15:45.526Z,96.20
2023-02-20T13:17:00.930Z,96.10
2023-02-20T13:18:17.959Z,96.10
2023-02-20T13:19:29.703Z,96.20
2023-02-20T13:20:39.332Z,96.00
2023-02-20T13:21:43.987Z,96.00
2023-02-20T13:23:01.199Z,95.90
2023-02-20T13:24:32.542Z,96.00
2023-02-20T13:25:42.542Z,96.00
2023-02-20T13:26:53.749Z,96.00
2023-02-20T13:28:01.731Z,95.90
2023-02-20T13:29:16.293Z,95.90
2023-02-20T13:30:22.572Z,95.90
2023-02-20T13:31:53.975Z,95.80
2023-02-20T13:33:13.288Z,95.80
2023-02-20T13:34:36.720Z,95.90
2023-02-20T13:35:53.708Z,95.70
2023-02-20T13:36:57.712Z,95.70
2023-02-20T13:38:12.256Z,95.70
2023-02-20T13:39:43.518Z,95.80
2023-02-20T13:41:03.592Z,95.70
2023-02-20T13:42:34.969Z,95.60
2023-02-20T13:43:39.334Z,95.60
2023-02-20T13:44:46.351Z,95.50
2023-02-20T13:45:51.504Z,95.60
2023-02-20T13:47:02.732Z,95.60
2023-02-20T13:48:38.598Z,95.50
2023-02-20T13:49:59.826Z,95.50
2023-02-20T13:51:40.612Z,95.60
2023-02-20T13:52:44.998Z,95.50
2023-02-20T13:53:53.848Z,95.60
2023-02-20T13:54:58.868Z,95.70
2023-02-20T13:56:02.715Z,95.70
2023-02-20T13:57:18.871Z,95.70
2023-02-20T13:58:23.282Z,95.60
2023-02-20T13:59:28.283Z,95.60
2023-02-20T14:00:47.103Z,95.50
2023-02-20T14:02:01.205Z,95.50
2023-02-20T14:03:13.428Z,95.50
2023-02-20T14:04:23.008Z,95.50
2023-02-20T14:05:30.695Z,95.50
2023-02-20T14:06:33.567Z,95.40
2023-02-20T14:07:40.619Z,95.30
2023-02-20T14:08:47.078Z,95.40
2023-02-20T14:10:01.867Z,95.40
2023-02-20T14:11:11.126Z,95.30
2023-02-20T14:12:14.508Z,95.40
2023-02-20T14:13:30.917Z,95.40
2023-02-20T14:14:46.535Z,95.40
2023-02-20T14:15:53.379Z,95.30
2023-02-20T14:17:09.115Z,95.30
2023-02-20T14:18:21.844Z,95.30
2023-02-20T14:19:29.857Z,95.40
2023-02-20T14:20:38.297Z,95.30
2023-02-20T14:21:41.153Z,95.40
2023-02-20T14:22:44.824Z,95.40
2023-02-20T14:23:50.309Z,95.40
2023-02-20T14:25:29.825Z,95.30
2023-02-20T14:26:35.442Z,95.30
2023-02-20T14:27:39.276Z,95.30
2023-02-20T14:28:48.769Z,95.30
2023-02-20T14:30:07.338Z,95.40
2023-02-20T14:31:25.608Z,95.40
2023-02-20T14:32:29.649Z,95.40
2023-02-20T14:33:34.534Z,95.40
2023-02-20T14:34:51.885Z,95.60
2023-02-20T14:36:44.789Z,95.60
2023-02-20T14:37:58.168Z,95.60
2023-02-20T14:39:20.548Z,95.60
2023-02-20T14:40:32.076Z,95.60
2023-02-20T14:41:35.842Z,95.60
2023-02-20T14:42:43.980Z,95.40
2023-02-20T14:43:57.437Z,95.60
2023-02-20T14:45:05.063Z,95.60